Time;durP1;ratioP1;P1;durP2;ratioP2;P2;SDS_P1;SDS_P2;PMS_P1;PMS_P2;Temp;Humidity;BMP_temperature;BMP_pressure;BME280_temperature;BME280_humidity;BME280_pressure;Samples;Min_cycle;Max_cycle;Signal;HPM_P1;HPM_P2
2022/06/26 00:02:26;;;;;;;;;;;;;;;;;;5054442;28;1440;-74
2022/06/26 00:04:52;;;;;;;;;;;;;;;;;;5073053;28;853;-74
2022/06/26 00:07:19;;;;;;;;;;;;;;;;;;5054394;28;1990;-74
2022/06/26 00:09:46;;;;;;;;;;;;;;;;;;5071011;28;925;-74
2022/06/26 00:12:12;;;;;;;;;;;;;;;;;;5054556;28;1436;-74
2022/06/26 00:14:38;;;;;;;;;;;;;;;;;;5054572;28;1210;-74
2022/06/26 00:17:05;;;;;;;;;;;;;;;;;;5071835;28;1068;-75
2022/06/26 00:19:32;;;;;;;;;;;;;;;;;;5053706;28;1174;-75
2022/06/26 00:21:59;;;;;;;;;;;;;;;;;;5072631;28;1011;-74
2022/06/26 00:24:26;;;;;;;;;;;;;;;;;;5072434;28;1347;-74
2022/06/26 00:26:52;;;;;;;;;;;;;;;;;;5071958;28;1913;-75
2022/06/26 00:29:19;;;;;;;;;;;;;;;;;;5054356;28;1339;-75
2022/06/26 00:31:45;;;;;;;;;;;;;;;;;;5054431;28;1280;-75
2022/06/26 00:34:11;;;;;;;;;;;;;;;;;;5054188;28;1369;-74
2022/06/26 00:36:37;;;;;;;;;;;;;;;;;;5071265;28;1059;-75
2022/06/26 00:39:04;;;;;;;;;;;;;;;;;;5072043;28;787;-75
2022/06/26 00:41:31;;;;;;;;;;;;;;;;;;5072329;28;862;-74
2022/06/26 00:43:58;;;;;;;;;;;;;;;;;;5054070;28;1383;-74
2022/06/26 00:46:25;;;;;;;;;;;;;;;;;;5053531;28;1971;-75
2022/06/26 00:48:51;;;;;;;;;;;;;;;;;;5071787;28;1036;-75
2022/06/26 00:51:18;;;;;;;;;;;;;;;;;;5071700;28;1031;-75
2022/06/26 00:53:44;;;;;;;;;;;;;;;;;;5054087;28;1304;-74
2022/06/26 00:56:10;;;;;;;;;;;;;;;;;;5071538;28;846;-75
2022/06/26 00:58:38;;;;;;;;;;;;;;;;;;5053884;28;1109;-75
2022/06/26 01:01:04;;;;;;;;;;;;;;;;;;5053665;28;1184;-74
2022/06/26 01:03:30;;;;;;;;;;;;;;;;;;5053422;28;1375;-75
2022/06/26 01:05:56;;;;;;;;;;;;;;;;;;5054053;28;1368;-76
2022/06/26 01:08:23;;;;;;;;;;;;;;;;;;5052862;28;2001;-74
2022/06/26 01:10:49;;;;;;;;;;;;;;;;;;5053486;28;1160;-75
2022/06/26 01:13:16;;;;;;;;;;;;;;;;;;5071620;28;1320;-74
2022/06/26 01:15:44;;;;;;;;;;;;;;;;;;5071680;28;677;-74
2022/06/26 01:18:10;;;;;;;;;;;;;;;;;;5070888;28;838;-74
2022/06/26 01:20:36;;;;;;;;;;;;;;;;;;5053297;28;1191;-74
2022/06/26 01:23:05;;;;;;;;;;;;;;;;;;5053197;28;1411;-75
2022/06/26 01:25:45;;;;;;;;;;;;;;;;;;5053475;28;1448;-74
2022/06/26 01:28:12;;;;;;;;;;;;;;;;;;5052686;28;1930;-75
2022/06/26 01:30:39;;;;;;;;;;;;;;;;;;5053218;28;1347;-74
2022/06/26 01:33:08;;;;;;;;;;;;;;;;;;5052747;28;1531;-74
2022/06/26 01:35:34;;;;;;;;;;;;;;;;;;5053263;28;1283;-73
2022/06/26 01:38:14;;;;;;;;;;;;;;;;;;5052512;28;1323;-74
2022/06/26 01:40:41;;;;;;;;;;;;;;;;;;5053250;28;1293;-74
2022/06/26 01:43:10;;;;;;;;;;;;;;;;;;5052975;28;1288;-74
2022/06/26 01:45:41;;;;;;;;;;;;;;;;;;5052567;28;1061;-74
2022/06/26 01:48:09;;;;;;;;;;;;;;;;;;5052199;28;1910;-74
2022/06/26 01:50:35;;;;;;;;;;;;;;;;;;5070628;28;1103;-74
2022/06/26 01:53:01;;;;;;;;;;;;;;;;;;5052751;28;1391;-74
2022/06/26 01:55:29;;;;;;;;;;;;;;;;;;5052893;28;1474;-74
2022/06/26 01:58:01;;;;;;;;;;;;;;;;;;5052227;28;1463;-75
2022/06/26 02:00:27;;;;;;;;;;;;;;;;;;5052510;28;1187;-75
2022/06/26 02:02:55;;;;;;;;;;;;;;;;;;5052423;28;1443;-75
2022/06/26 02:05:21;;;;;;;;;;;;;;;;;;5052772;28;1392;-75
2022/06/26 02:07:47;;;;;;;;;;;;;;;;;;5069810;28;1910;-75
2022/06/26 02:15:43;;;;;;;;;;;;;;;;;;5052482;28;1402;-75
2022/06/26 02:18:09;;;;;;;;;;;;;;;;;;5069750;28;758;-75
2022/06/26 02:20:35;;;;;;;;;;;;;;;;;;5051699;28;1350;-75
2022/06/26 02:23:01;;;;;;;;;;;;;;;;;;5052382;28;1438;-75
2022/06/26 02:25:29;;;;;;;;;;;;;;;;;;5052531;28;1199;-75
2022/06/26 02:27:55;;;;;;;;;;;;;;;;;;5051529;28;1982;-74
2022/06/26 02:30:23;;;;;;;;;;;;;;;;;;5071363;28;826;-75
2022/06/26 02:32:49;;;;;;;;;;;;;;;;;;5053336;28;1370;-74
2022/06/26 02:35:16;;;;;;;;;;;;;;;;;;5057074;28;1183;-75
2022/06/26 02:37:42;;;;;;;;;;;;;;;;;;5055684;28;1447;-75
2022/06/26 02:40:09;;;;;;;;;;;;;;;;;;5056290;28;1152;-75
2022/06/26 02:42:35;;;;;;;;;;;;;;;;;;5056381;28;1285;-75
2022/06/26 02:45:02;;;;;;;;;;;;;;;;;;5056491;28;1188;-76
2022/06/26 02:47:30;;;;;;;;;;;;;;;;;;5055728;28;1973;-75
2022/06/26 02:49:57;;;;;;;;;;;;;;;;;;5056221;28;1211;-74
2022/06/26 02:52:23;;;;;;;;;;;;;;;;;;5056216;28;1293;-75
2022/06/26 02:54:49;;;;;;;;;;;;;;;;;;5074235;28;925;-75
2022/06/26 02:57:16;;;;;;;;;;;;;;;;;;5055784;28;1504;-75
2022/06/26 02:59:44;;;;;;;;;;;;;;;;;;5056017;28;1491;-75
2022/06/26 03:02:10;;;;;;;;;;;;;;;;;;5056176;28;1233;-75
2022/06/26 03:04:45;;;;;;;;;;;;;;;;;;5055749;28;1195;-75
2022/06/26 03:07:16;;;;;;;;;;;;;;;;;;5055336;28;1977;-75
2022/06/26 03:09:43;;;;;;;;;;;;;;;;;;5055989;28;1299;-75
2022/06/26 03:12:10;;;;;;;;;;;;;;;;;;5067787;28;2060;-75
2022/06/26 03:14:41;;;;;;;;;;;;;;;;;;5051165;28;1532;-75
2022/06/26 03:17:07;;;;;;;;;;;;;;;;;;5046144;28;1433;-75
2022/06/26 03:19:34;;;;;;;;;;;;;;;;;;5056011;28;2318;-75
2022/06/26 03:22:02;;;;;;;;;;;;;;;;;;5055732;28;1249;-75
2022/06/26 03:24:28;;;;;;;;;;;;;;;;;;5055609;28;1349;-75
2022/06/26 03:26:55;;;;;;;;;;;;;;;;;;5054580;28;1910;-74
2022/06/26 03:29:21;;;;;;;;;;;;;;;;;;5055805;28;1178;-75
2022/06/26 03:31:47;;;;;;;;;;;;;;;;;;5073468;28;841;-74
2022/06/26 03:34:14;;;;;;;;;;;;;;;;;;5073274;28;1304;-75
2022/06/26 03:36:44;;;;;;;;;;;;;;;;;;5053989;28;1531;-75
2022/06/26 03:39:12;;;;;;;;;;;;;;;;;;5055574;28;1264;-76
2022/06/26 03:41:38;;;;;;;;;;;;;;;;;;5055555;28;1173;-76
2022/06/26 03:44:06;;;;;;;;;;;;;;;;;;5073164;28;1376;-74
2022/06/26 03:46:33;;;;;;;;;;;;;;;;;;5054520;28;1190;-74
2022/06/26 03:49:02;;;;;;;;;;;;;;;;;;5055209;28;1913;-73
2022/06/26 03:51:28;;;;;;;;;;;;;;;;;;5054624;28;973;-74
2022/06/26 03:53:55;;;;;;;;;;;;;;;;;;5054856;28;1400;-74
2022/06/26 03:56:24;;;;;;;;;;;;;;;;;;5054472;28;1254;-75
2022/06/26 03:58:51;;;;;;;;;;;;;;;;;;5054965;28;1608;-75
2022/06/26 04:01:18;;;;;;;;;;;;;;;;;;5054827;28;1320;-74
2022/06/26 04:03:48;;;;;;;;;;;;;;;;;;5054452;28;1454;-73
2022/06/26 04:06:15;;;;;;;;;;;;;;;;;;5054212;28;1121;-75
2022/06/26 04:08:44;;;;;;;;;;;;;;;;;;5017099;28;1977;-75
2022/06/26 04:11:14;;;;;;;;;;;;;;;;;;4981727;28;1410;-75
2022/06/26 04:13:43;;;;;;;;;;;;;;;;;;4984968;28;1376;-77
2022/06/26 04:16:09;;;;;;;;;;;;;;;;;;5006305;28;1691;-75
2022/06/26 04:18:39;;;;;;;;;;;;;;;;;;4980804;28;1455;-76
2022/06/26 04:21:09;;;;;;;;;;;;;;;;;;4980596;28;1637;-76
2022/06/26 04:23:37;;;;;;;;;;;;;;;;;;5017089;28;1437;-76
2022/06/26 04:26:08;;;;;;;;;;;;;;;;;;4977533;28;1741;-74
2022/06/26 04:28:34;;;;;;;;;;;;;;;;;;5001609;28;1930;-75
2022/06/26 04:31:06;;;;;;;;;;;;;;;;;;4979399;28;1171;-76
2022/06/26 04:33:35;;;;;;;;;;;;;;;;;;4998966;28;1423;-75
2022/06/26 04:36:06;;;;;;;;;;;;;;;;;;5010641;28;841;-74
2022/06/26 04:38:32;;;;;;;;;;;;;;;;;;5016599;28;1357;-77
2022/06/26 04:41:31;;;;;;;;;;;;;;;;;;4956020;28;1237;-75
2022/06/26 04:43:45;;;;;;;;;;;;;;;;;;4975602;28;1310;-75
2022/06/26 04:46:14;;;;;;;;;;;;;;;;;;5008652;28;845;-76
2022/06/26 04:48:42;;;;;;;;;;;;;;;;;;4989424;28;1962;-76
2022/06/26 04:51:12;;;;;;;;;;;;;;;;;;4981489;28;1491;-76
2022/06/26 04:53:39;;;;;;;;;;;;;;;;;;4975823;28;1442;-75
2022/06/26 04:56:06;;;;;;;;;;;;;;;;;;4982776;28;1077;-75
2022/06/26 04:58:43;;;;;;;;;;;;;;;;;;4989458;28;1208;-75
2022/06/26 05:01:10;;;;;;;;;;;;;;;;;;4973602;28;1343;-75
2022/06/26 05:04:10;;;;;;;;;;;;;;;;;;4963968;28;1707;-75
2022/06/26 05:06:55;;;;;;;;;;;;;;;;;;4981381;28;648;-75
2022/06/26 05:09:34;;;;;;;;;;;;;;;;;;4961844;28;1930;-74
2022/06/26 05:12:00;;;;;;;;;;;;;;;;;;4967329;28;1168;-76
2022/06/26 05:14:32;;;;;;;;;;;;;;;;;;4982275;28;1404;-75
2022/06/26 05:17:15;;;;;;;;;;;;;;;;;;4974878;28;1156;-77
2022/06/26 05:19:43;;;;;;;;;;;;;;;;;;4995321;28;1405;-76
2022/06/26 05:22:10;;;;;;;;;;;;;;;;;;4970415;28;1666;-77
2022/06/26 05:24:42;;;;;;;;;;;;;;;;;;4982105;23;4155;-70
2022/06/26 05:27:09;;;;;;;;;;;;;;;;;;5024782;28;1536;-71
2022/06/26 05:29:35;;;;;;;;;;;;;;;;;;5043647;28;1918;-71
2022/06/26 05:32:01;;;;;;;;;;;;;;;;;;5028807;28;1317;-71
2022/06/26 05:34:29;;;;;;;;;;;;;;;;;;5052183;28;1385;-71
2022/06/26 05:36:56;;;;;;;;;;;;;;;;;;5048797;28;1256;-71
2022/06/26 05:39:23;;;;;;;;;;;;;;;;;;5040704;28;1403;-70
2022/06/26 05:41:49;;;;;;;;;;;;;;;;;;5046621;28;1252;-70
2022/06/26 05:44:15;;;;;;;;;;;;;;;;;;5013422;28;1452;-70
2022/06/26 05:46:47;;;;;;;;;;;;;;;;;;5012333;28;982;-70
2022/06/26 05:49:31;;;;;;;;;;;;;;;;;;5031045;28;1910;-70
2022/06/26 05:52:05;;;;;;;;;;;;;;;;;;5039594;28;1674;-71
2022/06/26 05:55:10;;;;;;;;;;;;;;;;;;4986281;28;1581;-70
2022/06/26 05:57:55;;;;;;;;;;;;;;;;;;4985704;28;1380;-71
2022/06/26 06:00:40;;;;;;;;;;;;;;;;;;5032456;28;1615;-71
2022/06/26 06:03:06;;;;;;;;;;;;;;;;;;5049840;28;1240;-71
2022/06/26 06:05:33;;;;;;;;;;;;;;;;;;5049511;28;1578;-71
2022/06/26 06:08:01;;;;;;;;;;;;;;;;;;5042814;28;2044;-71
2022/06/26 06:10:28;;;;;;;;;;;;;;;;;;5042751;28;1298;-71
2022/06/26 06:12:54;;;;;;;;;;;;;;;;;;5042207;28;1185;-72
2022/06/26 06:15:22;;;;;;;;;;;;;;;;;;5042898;28;1424;-72
2022/06/26 06:17:51;;;;;;;;;;;;;;;;;;5045026;28;1764;-72
2022/06/26 06:20:19;;;;;;;;;;;;;;;;;;5044536;28;1403;-72
2022/06/26 06:22:47;;;;;;;;;;;;;;;;;;5043587;28;1322;-72
2022/06/26 06:25:15;;;;;;;;;;;;;;;;;;5027333;28;1596;-73
2022/06/26 06:27:41;;;;;;;;;;;;;;;;;;5019817;28;1780;-72
2022/06/26 06:30:12;;;;;;;;;;;;;;;;;;5041736;28;1353;-72
2022/06/26 06:32:40;;;;;;;;;;;;;;;;;;5023244;28;1549;-72
2022/06/26 06:35:13;;;;;;;;;;;;;;;;;;5027860;28;1416;-71
2022/06/26 06:37:40;;;;;;;;;;;;;;;;;;5043942;28;1274;-72
2022/06/26 06:40:08;;;;;;;;;;;;;;;;;;5049190;28;1607;-71
2022/06/26 06:42:39;;;;;;;;;;;;;;;;;;5024638;28;1703;-72
2022/06/26 06:45:12;;;;;;;;;;;;;;;;;;5045762;28;1456;-72
2022/06/26 06:48:04;;;;;;;;;;;;;;;;;;5038571;28;1910;-72
2022/06/26 06:50:56;;;;;;;;;;;;;;;;;;5039695;28;1675;-72
2022/06/26 06:53:22;;;;;;;;;;;;;;;;;;5043194;28;1774;-72
2022/06/26 06:55:49;;;;;;;;;;;;;;;;;;5037595;28;1568;-72
2022/06/26 06:58:16;;;;;;;;;;;;;;;;;;5020763;28;1416;-72
2022/06/26 07:00:44;;;;;;;;;;;;;;;;;;5040498;28;1683;-72
2022/06/26 07:03:12;;;;;;;;;;;;;;;;;;5046199;28;1569;-73
2022/06/26 07:05:38;;;;;;;;;;;;;;;;;;5041230;28;1528;-73
2022/06/26 07:08:05;;;;;;;;;;;;;;;;;;5028825;28;1910;-72
2022/06/26 07:10:31;;;;;;;;;;;;;;;;;;5026064;28;1223;-72
2022/06/26 07:12:58;;;;;;;;;;;;;;;;;;5041788;28;1257;-72
2022/06/26 07:15:26;;;;;;;;;;;;;;;;;;5050179;28;1318;-71
2022/06/26 07:17:52;;;;;;;;;;;;;;;;;;5049230;28;802;-72
2022/06/26 07:20:19;;;;;;;;;;;;;;;;;;5051301;28;1281;-72
2022/06/26 07:22:46;;;;;;;;;;;;;;;;;;5052557;28;1485;-72
2022/06/26 07:25:21;;;;;;;;;;;;;;;;;;5051891;28;1444;-71
2022/06/26 07:27:55;;;;;;;;;;;;;;;;;;5044453;28;1400;-72
2022/06/26 07:30:21;;;;;;;;;;;;;;;;;;5032212;28;1922;-72
2022/06/26 07:32:58;;;;;;;;;;;;;;;;;;5031866;28;1488;-72
2022/06/26 07:35:25;;;;;;;;;;;;;;;;;;5031832;28;1377;-72
2022/06/26 07:37:51;;;;;;;;;;;;;;;;;;5031278;28;1592;-72
2022/06/26 07:40:17;;;;;;;;;;;;;;;;;;5032829;28;1484;-72
2022/06/26 07:42:44;;;;;;;;;;;;;;;;;;5052880;28;1494;-72
2022/06/26 07:45:10;;;;;;;;;;;;;;;;;;5035132;28;1318;-73
2022/06/26 07:47:52;;;;;;;;;;;;;;;;;;5050809;28;1088;-73
2022/06/26 07:50:21;;;;;;;;;;;;;;;;;;5035201;28;1977;-72
2022/06/26 07:52:48;;;;;;;;;;;;;;;;;;5052860;28;944;-73
2022/06/26 07:55:16;;;;;;;;;;;;;;;;;;5051725;28;1334;-73
2022/06/26 07:57:42;;;;;;;;;;;;;;;;;;5052339;28;1064;-72
2022/06/26 08:00:09;;;;;;;;;;;;;;;;;;5052827;28;826;-72
2022/06/26 08:02:39;;;;;;;;;;;;;;;;;;5053194;28;829;-72
2022/06/26 08:05:05;;;;;;;;;;;;;;;;;;5051237;28;1411;-73
2022/06/26 08:07:33;;;;;;;;;;;;;;;;;;5051969;28;1064;-73
2022/06/26 08:09:59;;;;;;;;;;;;;;;;;;5034251;28;1979;-73
2022/06/26 08:12:25;;;;;;;;;;;;;;;;;;5052508;28;1072;-73
2022/06/26 08:14:51;;;;;;;;;;;;;;;;;;5034317;28;1422;-73
2022/06/26 08:17:17;;;;;;;;;;;;;;;;;;5051852;28;1111;-72
2022/06/26 08:19:44;;;;;;;;;;;;;;;;;;5034801;28;1127;-72
2022/06/26 08:22:10;;;;;;;;;;;;;;;;;;5051101;28;1173;-71
2022/06/26 08:24:39;;;;;;;;;;;;;;;;;;5051906;28;1313;-72
2022/06/26 08:27:05;;;;;;;;;;;;;;;;;;5033299;28;1165;-72
2022/06/26 08:29:32;;;;;;;;;;;;;;;;;;5034390;28;1922;-73
2022/06/26 08:31:58;;;;;;;;;;;;;;;;;;5049218;28;1229;-72
2022/06/26 08:34:24;;;;;;;;;;;;;;;;;;5052080;28;1344;-72
2022/06/26 08:36:52;;;;;;;;;;;;;;;;;;5050265;28;1155;-72
2022/06/26 08:39:18;;;;;;;;;;;;;;;;;;5052038;28;1064;-72
2022/06/26 08:41:46;;;;;;;;;;;;;;;;;;5051113;28;1249;-72
2022/06/26 08:44:13;;;;;;;;;;;;;;;;;;5051415;28;1334;-72
2022/06/26 08:46:40;;;;;;;;;;;;;;;;;;5033748;28;1180;-73
2022/06/26 08:49:08;;;;;;;;;;;;;;;;;;5051002;28;1979;-73
2022/06/26 08:51:35;;;;;;;;;;;;;;;;;;5052034;28;1059;-72
2022/06/26 08:54:01;;;;;;;;;;;;;;;;;;5051875;28;1274;-74
2022/06/26 08:56:27;;;;;;;;;;;;;;;;;;5049893;28;1134;-72
2022/06/26 08:58:55;;;;;;;;;;;;;;;;;;5050409;28;1222;-72
2022/06/26 09:01:22;;;;;;;;;;;;;;;;;;5033445;28;1128;-72
2022/06/26 09:03:48;;;;;;;;;;;;;;;;;;5050397;28;1437;-72
2022/06/26 09:06:14;;;;;;;;;;;;;;;;;;5050951;28;1003;-72
2022/06/26 09:08:44;;;;;;;;;;;;;;;;;;5051551;28;1916;-73
2022/06/26 09:11:10;;;;;;;;;;;;;;;;;;5051428;28;929;-73
2022/06/26 09:13:37;;;;;;;;;;;;;;;;;;5047225;28;2036;-72
2022/06/26 09:16:05;;;;;;;;;;;;;;;;;;5048824;28;1166;-72
2022/06/26 09:18:33;;;;;;;;;;;;;;;;;;5045008;28;1217;-73
2022/06/26 09:21:00;;;;;;;;;;;;;;;;;;5050161;28;1351;-72
2022/06/26 09:23:26;;;;;;;;;;;;;;;;;;5050581;28;1305;-73
2022/06/26 09:25:52;;;;;;;;;;;;;;;;;;5049786;28;1563;-73
2022/06/26 09:28:19;;;;;;;;;;;;;;;;;;5048986;28;1131;-72
2022/06/26 09:30:46;;;;;;;;;;;;;;;;;;5051092;28;1922;-72
2022/06/26 09:33:14;;;;;;;;;;;;;;;;;;5050051;28;1262;-73
2022/06/26 09:35:40;;;;;;;;;;;;;;;;;;5050838;28;1322;-73
2022/06/26 09:38:06;;;;;;;;;;;;;;;;;;5050492;28;1106;-73
2022/06/26 09:40:32;;;;;;;;;;;;;;;;;;5050121;28;1455;-72
2022/06/26 09:42:59;;;;;;;;;;;;;;;;;;5050978;28;1091;-73
2022/06/26 09:45:25;;;;;;;;;;;;;;;;;;5032783;28;1496;-72
2022/06/26 09:47:51;;;;;;;;;;;;;;;;;;5049902;28;1060;-73
2022/06/26 09:50:19;;;;;;;;;;;;;;;;;;5050642;28;1914;-73
2022/06/26 09:52:45;;;;;;;;;;;;;;;;;;5050668;28;1064;-72
2022/06/26 09:55:11;;;;;;;;;;;;;;;;;;5050361;28;1330;-72
2022/06/26 09:57:37;;;;;;;;;;;;;;;;;;5048181;28;1208;-72
2022/06/26 10:00:04;;;;;;;;;;;;;;;;;;5032822;28;1403;-72
2022/06/26 10:08:08;;;;;;;;;;;;;;;;;;5049342;28;826;-73
2022/06/26 10:10:35;;;;;;;;;;;;;;;;;;5050276;28;1906;-73
2022/06/26 10:13:02;;;;;;;;;;;;;;;;;;5050691;28;1060;-72
2022/06/26 10:15:29;;;;;;;;;;;;;;;;;;5032175;28;1352;-74
2022/06/26 10:17:59;;;;;;;;;;;;;;;;;;5049832;28;1135;-73
2022/06/26 10:20:27;;;;;;;;;;;;;;;;;;5032693;28;1329;-73
2022/06/26 10:22:53;;;;;;;;;;;;;;;;;;5050108;28;1506;-73
2022/06/26 10:25:22;;;;;;;;;;;;;;;;;;5049979;28;1333;-74
2022/06/26 10:27:48;;;;;;;;;;;;;;;;;;5049533;28;1067;-71
2022/06/26 10:30:15;;;;;;;;;;;;;;;;;;5050258;28;1970;-72
2022/06/26 10:32:42;;;;;;;;;;;;;;;;;;5049786;28;1534;-74
2022/06/26 10:35:09;;;;;;;;;;;;;;;;;;5049895;28;1337;-74
2022/06/26 10:37:41;;;;;;;;;;;;;;;;;;5031599;28;1119;-75
2022/06/26 10:40:12;;;;;;;;;;;;;;;;;;5050198;28;1122;-72
2022/06/26 10:42:52;;;;;;;;;;;;;;;;;;5049840;28;1105;-74
2022/06/26 10:45:19;;;;;;;;;;;;;;;;;;5031798;28;1408;-73
2022/06/26 10:47:47;;;;;;;;;;;;;;;;;;5031466;28;806;-74
2022/06/26 10:50:26;;;;;;;;;;;;;;;;;;5049763;28;2385;-73
2022/06/26 10:52:54;;;;;;;;;;;;;;;;;;5050063;28;985;-74
2022/06/26 10:55:20;;;;;;;;;;;;;;;;;;5052173;28;1516;-73
2022/06/26 10:57:46;;;;;;;;;;;;;;;;;;5053174;28;957;-73
2022/06/26 11:00:13;;;;;;;;;;;;;;;;;;5053970;28;1247;-73
2022/06/26 11:02:40;;;;;;;;;;;;;;;;;;5053523;28;1012;-74
2022/06/26 11:05:07;;;;;;;;;;;;;;;;;;5035608;28;1314;-74
2022/06/26 11:07:40;;;;;;;;;;;;;;;;;;5035093;28;1250;-73
2022/06/26 11:10:09;;;;;;;;;;;;;;;;;;5053419;28;1970;-73
2022/06/26 11:12:39;;;;;;;;;;;;;;;;;;5053527;28;1128;-73
2022/06/26 11:15:06;;;;;;;;;;;;;;;;;;5053548;28;1306;-73
2022/06/26 11:17:33;;;;;;;;;;;;;;;;;;5052604;28;806;-73
2022/06/26 11:22:43;;;;;;;;;;;;;;;;;;5053359;28;993;-73
2022/06/26 11:25:10;;;;;;;;;;;;;;;;;;5053045;28;1420;-73
2022/06/26 11:30:20;;;;;;;;;;;;;;;;;;5046781;28;1910;-75
2022/06/26 11:32:46;;;;;;;;;;;;;;;;;;5030069;28;2073;-75
2022/06/26 11:35:13;;;;;;;;;;;;;;;;;;5043237;28;1834;-74
2022/06/26 11:37:40;;;;;;;;;;;;;;;;;;5034166;28;2256;-75
2022/06/26 11:40:12;;;;;;;;;;;;;;;;;;5041315;28;1887;-75
2022/06/26 11:42:39;;;;;;;;;;;;;;;;;;5043503;28;2009;-75
2022/06/26 11:45:06;;;;;;;;;;;;;;;;;;5042249;28;1815;-75
2022/06/26 11:47:34;;;;;;;;;;;;;;;;;;5044606;28;1925;-76
2022/06/26 11:50:00;;;;;;;;;;;;;;;;;;5042283;28;1984;-75
2022/06/26 11:52:26;;;;;;;;;;;;;;;;;;5045879;28;2130;-76
2022/06/26 11:54:57;;;;;;;;;;;;;;;;;;5046069;28;2037;-75
2022/06/26 11:57:24;;;;;;;;;;;;;;;;;;5048712;28;1848;-75
2022/06/26 11:59:51;;;;;;;;;;;;;;;;;;5050290;28;2037;-75
2022/06/26 12:02:20;;;;;;;;;;;;;;;;;;5039078;28;1989;-75
2022/06/26 12:04:54;;;;;;;;;;;;;;;;;;5056796;28;1759;-75
2022/06/26 12:07:20;;;;;;;;;;;;;;;;;;5037907;28;1081;-77
2022/06/26 12:09:47;;;;;;;;;;;;;;;;;;5035109;28;1922;-75
2022/06/26 12:12:13;;;;;;;;;;;;;;;;;;5041734;28;2101;-76
2022/06/26 12:14:49;;;;;;;;;;;;;;;;;;5041726;28;1799;-76
2022/06/26 12:17:20;;;;;;;;;;;;;;;;;;5041284;28;2135;-76
2022/06/26 12:19:46;;;;;;;;;;;;;;;;;;5040513;28;2062;-76
2022/06/26 12:22:12;;;;;;;;;;;;;;;;;;5049191;28;1743;-76
2022/06/26 12:24:48;;;;;;;;;;;;;;;;;;5050447;28;2024;-76
2022/06/26 12:27:14;;;;;;;;;;;;;;;;;;5048489;28;1688;-76
2022/06/26 12:29:41;;;;;;;;;;;;;;;;;;5042459;28;2061;-76
2022/06/26 12:32:08;;;;;;;;;;;;;;;;;;5046667;28;1831;-77
2022/06/26 12:34:35;;;;;;;;;;;;;;;;;;5039568;28;2026;-77
2022/06/26 12:37:01;;;;;;;;;;;;;;;;;;5030739;28;1445;-76
2022/06/26 12:39:27;;;;;;;;;;;;;;;;;;5036380;28;2174;-76
2022/06/26 12:41:54;;;;;;;;;;;;;;;;;;5043084;28;1803;-76
2022/06/26 12:44:20;;;;;;;;;;;;;;;;;;5048715;28;2053;-76
2022/06/26 12:46:46;;;;;;;;;;;;;;;;;;5042920;28;1421;-76
2022/06/26 12:49:14;;;;;;;;;;;;;;;;;;5038184;28;1973;-76
2022/06/26 12:51:40;;;;;;;;;;;;;;;;;;5063391;28;1985;-75
2022/06/26 12:54:06;;;;;;;;;;;;;;;;;;5042243;28;2174;-76
2022/06/26 12:56:32;;;;;;;;;;;;;;;;;;5044338;28;2054;-77
2022/06/26 12:58:59;;;;;;;;;;;;;;;;;;5035942;28;2012;-76
2022/06/26 13:01:25;;;;;;;;;;;;;;;;;;5059598;28;1934;-77
2022/06/26 13:03:51;;;;;;;;;;;;;;;;;;5043441;28;1473;-76
2022/06/26 13:06:19;;;;;;;;;;;;;;;;;;5047456;28;1334;-77
2022/06/26 13:08:45;;;;;;;;;;;;;;;;;;5043661;28;1354;-76
2022/06/26 13:11:23;;;;;;;;;;;;;;;;;;5051620;28;1165;-77
2022/06/26 13:13:50;;;;;;;;;;;;;;;;;;5043649;28;1474;-77
2022/06/26 13:16:16;;;;;;;;;;;;;;;;;;5043997;28;1502;-77
2022/06/26 13:18:42;;;;;;;;;;;;;;;;;;5044192;28;1413;-77
2022/06/26 13:21:09;;;;;;;;;;;;;;;;;;5052505;28;1981;-76
2022/06/26 13:23:36;;;;;;;;;;;;;;;;;;5051442;28;1068;-75
2022/06/26 13:26:03;;;;;;;;;;;;;;;;;;5038401;28;1395;-76
2022/06/26 13:28:29;;;;;;;;;;;;;;;;;;5042504;28;1402;-74
2022/06/26 13:30:55;;;;;;;;;;;;;;;;;;5048381;28;1319;-76
2022/06/26 13:33:22;;;;;;;;;;;;;;;;;;5049542;28;1423;-76
2022/06/26 13:35:48;;;;;;;;;;;;;;;;;;5050416;28;1122;-76
2022/06/26 13:38:14;;;;;;;;;;;;;;;;;;5050630;28;1403;-77
2022/06/26 13:40:42;;;;;;;;;;;;;;;;;;5049849;28;1923;-76
2022/06/26 13:43:08;;;;;;;;;;;;;;;;;;5045705;28;1377;-75
2022/06/26 13:45:35;;;;;;;;;;;;;;;;;;5060122;28;1422;-77
2022/06/26 13:48:01;;;;;;;;;;;;;;;;;;5046878;28;1428;-76
2022/06/26 13:50:27;;;;;;;;;;;;;;;;;;5046740;28;1405;-77
2022/06/26 13:52:53;;;;;;;;;;;;;;;;;;5048414;28;1821;-75
2022/06/26 13:55:19;;;;;;;;;;;;;;;;;;5045509;28;2092;-75
2022/06/26 13:57:48;;;;;;;;;;;;;;;;;;5046512;28;2064;-75
2022/06/26 14:00:15;;;;;;;;;;;;;;;;;;5044203;28;1987;-76
2022/06/26 14:02:41;;;;;;;;;;;;;;;;;;5041059;28;1126;-76
2022/06/26 14:05:08;;;;;;;;;;;;;;;;;;5040963;28;1760;-76
2022/06/26 14:07:34;;;;;;;;;;;;;;;;;;5041530;28;1335;-76
2022/06/26 14:10:00;;;;;;;;;;;;;;;;;;5040086;28;1389;-75
2022/06/26 14:12:26;;;;;;;;;;;;;;;;;;5044641;28;1413;-75
2022/06/26 14:14:55;;;;;;;;;;;;;;;;;;5046334;28;1274;-75
2022/06/26 14:17:21;;;;;;;;;;;;;;;;;;5049080;28;1331;-77
2022/06/26 14:19:47;;;;;;;;;;;;;;;;;;5046569;28;1500;-76
2022/06/26 14:27:38;;;;;;;;;;;;;;;;;;5010498;28;1436;-76
2022/06/26 14:30:08;;;;;;;;;;;;;;;;;;5042256;28;1436;-75
2022/06/26 14:32:34;;;;;;;;;;;;;;;;;;5042420;28;1784;-77
2022/06/26 14:35:01;;;;;;;;;;;;;;;;;;5057489;28;1771;-77
2022/06/26 14:37:27;;;;;;;;;;;;;;;;;;5061771;28;1201;-76
2022/06/26 14:39:53;;;;;;;;;;;;;;;;;;5047804;28;2069;-76
2022/06/26 14:42:19;;;;;;;;;;;;;;;;;;5041381;28;1914;-76
2022/06/26 14:44:45;;;;;;;;;;;;;;;;;;5040644;28;1518;-76
2022/06/26 14:47:13;;;;;;;;;;;;;;;;;;5039777;28;1378;-75
2022/06/26 14:49:39;;;;;;;;;;;;;;;;;;5043079;28;1537;-76
2022/06/26 14:52:06;;;;;;;;;;;;;;;;;;5038051;28;1212;-76
2022/06/26 14:54:32;;;;;;;;;;;;;;;;;;5040484;28;1315;-76
2022/06/26 14:56:59;;;;;;;;;;;;;;;;;;5043534;28;1456;-75
2022/06/26 14:59:25;;;;;;;;;;;;;;;;;;5040688;28;1350;-76
2022/06/26 15:01:51;;;;;;;;;;;;;;;;;;5048893;28;1907;-74
2022/06/26 15:04:19;;;;;;;;;;;;;;;;;;5048701;28;1390;-75
2022/06/26 15:06:45;;;;;;;;;;;;;;;;;;5047191;28;1418;-76
2022/06/26 15:09:11;;;;;;;;;;;;;;;;;;5047090;28;1407;-76
2022/06/26 15:11:37;;;;;;;;;;;;;;;;;;5042413;28;1113;-75
2022/06/26 15:14:04;;;;;;;;;;;;;;;;;;5039444;28;1891;-75
2022/06/26 15:16:30;;;;;;;;;;;;;;;;;;5038132;28;1718;-74
2022/06/26 15:18:56;;;;;;;;;;;;;;;;;;5038538;28;1543;-75
2022/06/26 15:21:24;;;;;;;;;;;;;;;;;;5041743;28;1930;-75
2022/06/26 15:23:50;;;;;;;;;;;;;;;;;;5048684;28;1355;-75
2022/06/26 15:26:16;;;;;;;;;;;;;;;;;;5041074;28;1286;-76
2022/06/26 15:28:42;;;;;;;;;;;;;;;;;;5049743;28;1409;-74
2022/06/26 15:31:09;;;;;;;;;;;;;;;;;;5050553;28;1406;-75
2022/06/26 15:33:35;;;;;;;;;;;;;;;;;;5048132;28;1532;-76
2022/06/26 15:36:01;;;;;;;;;;;;;;;;;;5039583;28;1416;-75
2022/06/26 15:38:29;;;;;;;;;;;;;;;;;;5049138;28;1336;-75
2022/06/26 15:40:55;;;;;;;;;;;;;;;;;;5050149;28;1938;-75
2022/06/26 15:43:23;;;;;;;;;;;;;;;;;;5051861;28;1399;-75
2022/06/26 15:45:49;;;;;;;;;;;;;;;;;;5045112;28;1205;-75
2022/06/26 15:48:15;;;;;;;;;;;;;;;;;;5052441;28;1301;-75
2022/06/26 15:50:41;;;;;;;;;;;;;;;;;;5052254;28;1159;-75
2022/06/26 15:53:08;;;;;;;;;;;;;;;;;;5050327;28;1400;-75
2022/06/26 15:55:35;;;;;;;;;;;;;;;;;;5046038;28;1504;-75
2022/06/26 15:58:02;;;;;;;;;;;;;;;;;;5038701;28;1422;-75
2022/06/26 16:00:28;;;;;;;;;;;;;;;;;;5040151;28;1227;-75
2022/06/26 16:02:54;;;;;;;;;;;;;;;;;;5043578;28;1971;-74
2022/06/26 16:05:20;;;;;;;;;;;;;;;;;;5045821;28;1339;-75
2022/06/26 16:07:47;;;;;;;;;;;;;;;;;;5046581;28;1445;-75
2022/06/26 16:10:13;;;;;;;;;;;;;;;;;;5042440;28;1551;-75
2022/06/26 16:12:40;;;;;;;;;;;;;;;;;;5048552;28;1343;-75
2022/06/26 16:15:07;;;;;;;;;;;;;;;;;;5052276;28;1404;-76
2022/06/26 16:17:34;;;;;;;;;;;;;;;;;;5049575;28;1377;-74
2022/06/26 16:20:00;;;;;;;;;;;;;;;;;;5047695;28;1387;-75
2022/06/26 16:27:55;;;;;;;;;;;;;;;;;;5044942;28;1857;-73
2022/06/26 16:30:21;;;;;;;;;;;;;;;;;;5062062;28;1231;-75
2022/06/26 16:32:48;;;;;;;;;;;;;;;;;;5049288;28;1235;-74
2022/06/26 16:35:14;;;;;;;;;;;;;;;;;;5050322;28;1448;-76
2022/06/26 16:37:40;;;;;;;;;;;;;;;;;;5046399;28;1250;-75
2022/06/26 16:40:07;;;;;;;;;;;;;;;;;;5053506;28;1468;-75
2022/06/26 16:42:34;;;;;;;;;;;;;;;;;;5013273;28;1991;-77
2022/06/26 16:45:02;;;;;;;;;;;;;;;;;;4997719;28;1210;-76
2022/06/26 16:47:29;;;;;;;;;;;;;;;;;;4959149;28;830;-76
2022/06/26 16:49:55;;;;;;;;;;;;;;;;;;4956999;28;1381;-76
2022/06/26 16:52:22;;;;;;;;;;;;;;;;;;4968295;28;892;-75
2022/06/26 16:54:48;;;;;;;;;;;;;;;;;;4967591;28;913;-75
2022/06/26 16:57:15;;;;;;;;;;;;;;;;;;4966208;28;953;-76
2022/06/26 16:59:41;;;;;;;;;;;;;;;;;;4966679;28;1294;-76
2022/06/26 17:02:10;;;;;;;;;;;;;;;;;;4978661;28;1987;-78
2022/06/26 17:04:36;;;;;;;;;;;;;;;;;;4986291;28;1636;-75
2022/06/26 17:07:03;;;;;;;;;;;;;;;;;;4975385;28;1162;-74
2022/06/26 17:09:29;;;;;;;;;;;;;;;;;;4986050;28;1345;-73
2022/06/26 17:11:55;;;;;;;;;;;;;;;;;;4988050;28;897;-73
2022/06/26 17:14:22;;;;;;;;;;;;;;;;;;4984187;28;1394;-75
2022/06/26 17:16:48;;;;;;;;;;;;;;;;;;4968596;28;1069;-76
2022/06/26 17:19:16;;;;;;;;;;;;;;;;;;4974580;28;1780;-75
2022/06/26 17:21:43;;;;;;;;;;;;;;;;;;4983478;28;1951;-76
2022/06/26 17:24:09;;;;;;;;;;;;;;;;;;4978216;28;1297;-75
2022/06/26 17:26:36;;;;;;;;;;;;;;;;;;4979217;28;1202;-75
2022/06/26 17:29:02;;;;;;;;;;;;;;;;;;4985756;28;1389;-75
2022/06/26 17:31:28;;;;;;;;;;;;;;;;;;4990236;22;1987;-73
2022/06/26 17:33:55;;;;;;;;;;;;;;;;;;4972965;28;1214;-75
2022/06/26 17:36:22;;;;;;;;;;;;;;;;;;4980747;28;1503;-75